Time;durP1;ratioP1;P1;durP2;ratioP2;P2;SDS_P1;SDS_P2;PMS_P1;PMS_P2;Temp;Humidity;BMP_temperature;BMP_pressure;BME280_temperature;BME280_humidity;BME280_pressure;Samples;Min_cycle;Max_cycle;Signal;HPM_P1;HPM_P2
2021/12/07 00:00:27;;;;;;;63.20;32.20;;;;;;;-2.28;97.08;100749.94;7396904;19;20022;-67
2021/12/07 00:02:56;;;;;;;59.38;29.80;;;;;;;-2.26;97.43;100736.31;7398228;19;20018;-67
2021/12/07 00:05:25;;;;;;;62.92;31.90;;;;;;;-2.24;97.31;100742.34;7398412;19;20022;-67
2021/12/07 00:07:53;;;;;;;66.65;32.17;;;;;;;-2.21;97.22;100731.28;7396310;19;20036;-67
2021/12/07 00:10:22;;;;;;;63.08;31.65;;;;;;;-2.20;97.22;100722.75;7397822;19;20394;-67
2021/12/07 00:12:51;;;;;;;63.78;31.63;;;;;;;-2.19;97.05;100722.78;7396012;19;20035;-67
2021/12/07 00:15:23;;;;;;;59.45;29.73;;;;;;;-2.17;97.21;100718.59;7398002;19;20023;-67
2021/12/07 00:17:51;;;;;;;62.15;30.70;;;;;;;-2.14;97.34;100718.69;7396713;19;20022;-67
2021/12/07 00:20:22;;;;;;;58.70;30.73;;;;;;;-2.13;97.08;100710.13;7396290;19;20019;-67
2021/12/07 00:22:53;;;;;;;68.43;31.75;;;;;;;-2.10;97.13;100708.50;7398108;19;20018;-67
2021/12/07 00:25:23;;;;;;;59.28;30.80;;;;;;;-2.08;97.43;100707.69;7397445;19;20483;-67
2021/12/07 00:27:51;;;;;;;60.45;31.15;;;;;;;-2.04;97.58;100699.25;7395772;19;20086;-67
2021/12/07 00:30:27;;;;;;;60.67;30.75;;;;;;;-2.03;97.27;100695.84;7397536;19;20014;-67
2021/12/07 00:33:08;;;;;;;67.20;33.70;;;;;;;-2.01;97.02;100689.06;7396456;19;20033;-67
2021/12/07 00:35:37;;;;;;;63.67;31.48;;;;;;;-1.99;96.96;100687.38;7395912;19;20052;-67
2021/12/07 00:38:09;;;;;;;59.22;30.63;;;;;;;-1.97;97.09;100687.47;7394939;19;20378;-67
2021/12/07 00:40:38;;;;;;;63.47;30.92;;;;;;;-1.96;97.25;100676.31;7397637;19;20036;-67
2021/12/07 00:43:06;;;;;;;66.05;32.15;;;;;;;-1.93;97.30;100678.09;7396401;19;20385;-67
2021/12/07 00:45:39;;;;;;;67.10;32.55;;;;;;;-1.92;97.39;100680.75;7395860;19;20484;-67
2021/12/07 00:48:09;;;;;;;55.97;30.80;;;;;;;-1.90;97.40;100685.91;7396627;19;20028;-67
2021/12/07 00:50:40;;;;;;;61.25;30.08;;;;;;;-1.89;97.24;100683.38;7396959;19;20028;-67
2021/12/07 00:53:08;;;;;;;63.72;29.83;;;;;;;-1.87;97.34;100686.88;7396879;19;20018;-67
2021/12/07 00:55:40;;;;;;;56.80;29.75;;;;;;;-1.86;97.14;100682.59;7394988;19;20023;-67
2021/12/07 00:58:17;;;;;;;56.50;29.23;;;;;;;-1.85;96.91;100679.22;7394725;19;20477;-67
2021/12/07 01:00:50;;;;;;;57.28;29.33;;;;;;;-1.85;97.14;100684.34;7395263;19;20040;-67
2021/12/07 01:03:19;;;;;;;54.75;28.60;;;;;;;-1.83;96.92;100685.28;7395021;19;20031;-67
2021/12/07 01:05:51;;;;;;;54.03;28.50;;;;;;;-1.85;97.14;100680.06;7394626;19;20039;-67
2021/12/07 01:08:51;;;;;;;54.75;29.08;;;;;;;-1.83;97.05;100675.84;7396892;19;20041;-67
2021/12/07 01:24:44;;;;;;;52.95;28.42;;;;;;;-1.77;96.99;100648.53;7394594;19;20022;-67
2021/12/07 01:27:15;;;;;;;47.78;27.30;;;;;;;-1.78;96.78;100633.94;7395346;19;20483;-67
2021/12/07 01:29:46;;;;;;;46.88;25.88;;;;;;;-1.81;96.34;100625.34;7396073;19;20014;-67
2021/12/07 01:32:30;;;;;;;48.13;26.30;;;;;;;-1.82;96.83;100623.59;7395193;19;20031;-67
2021/12/07 01:38:00;;;;;;;40.15;22.25;;;;;;;-1.87;96.92;100627.72;7392877;19;20347;-67
2021/12/07 01:46:22;;;;;;;41.15;23.15;;;;;;;-1.95;96.83;100620.63;7392070;19;20019;-67
2021/12/07 01:51:49;;;;;;;45.78;23.50;;;;;;;-2.01;97.10;100621.31;7395946;19;20013;-67
2021/12/07 01:59:43;;;;;;;45.20;24.55;;;;;;;-2.11;96.79;100609.94;7402744;19;20006;-67
2021/12/07 02:02:15;;;;;;;42.70;23.98;;;;;;;-2.11;96.97;100594.50;7402515;19;20019;-67
2021/12/07 02:04:48;;;;;;;42.33;23.15;;;;;;;-2.14;96.72;100586.69;7399437;19;20040;-67
2021/12/07 02:07:17;;;;;;;45.10;24.65;;;;;;;-2.17;96.57;100578.91;7398981;19;20360;-68
2021/12/07 02:09:46;;;;;;;41.28;23.65;;;;;;;-2.18;96.73;100577.16;7399625;19;20385;-67
2021/12/07 02:12:15;;;;;;;43.30;24.23;;;;;;;-2.19;96.91;100570.28;7402103;19;20024;-67
2021/12/07 02:14:44;;;;;;;43.50;22.73;;;;;;;-2.19;97.05;100570.28;7400844;19;20039;-66
2021/12/07 02:17:15;;;;;;;45.05;24.88;;;;;;;-2.20;96.97;100568.53;7400846;19;20018;-66
2021/12/07 02:19:45;;;;;;;43.65;24.33;;;;;;;-2.21;96.97;100567.69;7402344;19;20019;-66
2021/12/07 02:22:17;;;;;;;41.65;23.83;;;;;;;-2.21;97.02;100561.66;7402098;19;20018;-66
2021/12/07 02:24:46;;;;;;;44.47;24.20;;;;;;;-2.23;96.88;100564.19;7399301;19;20018;-66
2021/12/07 02:27:14;;;;;;;42.70;23.08;;;;;;;-2.24;96.76;100570.16;7399000;19;20022;-66
2021/12/07 02:29:42;;;;;;;45.78;26.08;;;;;;;-2.26;97.03;100569.25;7401582;19;20031;-66
2021/12/07 02:32:11;;;;;;;48.80;26.38;;;;;;;-2.26;96.80;100565.78;7401264;19;20018;-66
2021/12/07 02:34:43;;;;;;;49.83;26.45;;;;;;;-2.27;96.99;100570.06;7399202;19;20024;-66
2021/12/07 02:37:12;;;;;;;45.85;26.23;;;;;;;-2.32;96.75;100569.94;7400793;19;20018;-66
2021/12/07 02:39:44;;;;;;;52.17;26.45;;;;;;;-2.28;97.00;100573.47;7400738;19;20500;-67
2021/12/07 02:42:12;;;;;;;51.08;25.65;;;;;;;-2.28;96.86;100572.63;7401526;19;20015;-66
2021/12/07 02:44:41;;;;;;;49.28;26.42;;;;;;;-2.30;96.80;100576.00;7398352;19;20026;-66
2021/12/07 02:47:09;;;;;;;48.47;25.77;;;;;;;-2.31;96.72;100571.69;7400858;19;20018;-66
2021/12/07 02:49:37;;;;;;;48.80;26.95;;;;;;;-2.30;96.53;100564.84;7398194;19;20018;-67
2021/12/07 02:52:06;;;;;;;51.25;26.75;;;;;;;-2.31;96.56;100555.41;7398200;19;20022;-66
2021/12/07 02:54:36;;;;;;;48.65;28.27;;;;;;;-2.31;96.39;100569.13;7397962;19;20027;-66
2021/12/07 02:57:07;;;;;;;49.80;26.60;;;;;;;-2.33;96.69;100559.63;7397944;19;20019;-66
2021/12/07 02:59:36;;;;;;;51.97;27.63;;;;;;;-2.31;96.64;100566.53;7400976;19;20019;-66
2021/12/07 03:02:07;;;;;;;52.60;27.58;;;;;;;-2.28;96.73;100567.47;7400402;19;20018;-67
2021/12/07 03:04:41;;;;;;;56.10;28.83;;;;;;;-2.26;96.93;100564.13;7397874;19;20019;-66
2021/12/07 03:07:17;;;;;;;53.10;29.08;;;;;;;-2.24;96.96;100569.28;7400696;19;20019;-66
2021/12/07 03:25:49;;;;;;;54.30;28.00;;;;;;;-2.23;96.96;100564.19;7398748;19;20126;-66
2021/12/07 03:26:18;;;;;;;56.10;28.15;;;;;;;-2.19;96.67;100548.00;7401105;19;20355;-67
2021/12/07 03:28:54;;;;;;;56.88;28.52;;;;;;;-2.17;96.69;100551.50;7400293;19;20496;-67
2021/12/07 03:31:25;;;;;;;57.38;30.55;;;;;;;-2.17;96.69;100545.50;7400520;19;20161;-67
2021/12/07 03:34:01;;;;;;;56.83;30.33;;;;;;;-2.17;96.95;100554.06;7397235;19;20364;-66
2021/12/07 03:36:36;;;;;;;60.88;28.98;;;;;;;-2.16;96.70;100550.69;7399491;19;20022;-67
2021/12/07 03:39:06;;;;;;;51.63;27.90;;;;;;;-2.18;96.89;100547.19;7396619;19;20019;-67
2021/12/07 03:41:34;;;;;;;52.50;28.15;;;;;;;-2.17;96.76;100545.50;7396631;19;20357;-67
2021/12/07 03:44:06;;;;;;;51.40;28.13;;;;;;;-2.17;96.98;100559.22;7397925;19;20019;-67
2021/12/07 03:46:34;;;;;;;53.95;28.27;;;;;;;-2.18;96.80;100566.88;7397281;19;20014;-67
2021/12/07 03:49:03;;;;;;;51.30;26.02;;;;;;;-2.20;96.88;100559.16;7399312;19;20018;-67
2021/12/07 03:51:31;;;;;;;50.75;27.65;;;;;;;-2.20;96.88;100564.28;7396605;19;20039;-67
2021/12/07 03:53:59;;;;;;;51.03;26.75;;;;;;;-2.20;96.91;100559.16;7397127;19;20381;-67
2021/12/07 03:56:27;;;;;;;51.20;28.55;;;;;;;-2.21;96.97;100559.06;7398556;19;20131;-67
2021/12/07 03:58:55;;;;;;;56.65;28.17;;;;;;;-2.23;96.97;100561.63;7396635;19;20035;-67
2021/12/07 04:01:26;;;;;;;52.65;28.17;;;;;;;-2.24;96.83;100567.56;7398433;19;20430;-67
2021/12/07 04:03:56;;;;;;;51.75;26.80;;;;;;;-2.25;97.00;100575.25;7397035;19;20389;-66
2021/12/07 04:06:25;;;;;;;51.97;26.42;;;;;;;-2.27;96.71;100569.19;7398159;19;20014;-67
2021/12/07 04:08:53;;;;;;;52.13;27.92;;;;;;;-2.30;96.86;100558.00;7397842;19;20022;-67
2021/12/07 04:11:21;;;;;;;50.35;27.70;;;;;;;-2.31;96.82;100552.84;7395412;19;20479;-66
2021/12/07 04:13:49;;;;;;;56.72;30.10;;;;;;;-2.33;96.83;100552.78;7395940;19;20022;-66
2021/12/07 04:16:19;;;;;;;56.83;30.63;;;;;;;-2.35;96.66;100554.44;7397916;19;20030;-67
2021/12/07 04:18:50;;;;;;;52.30;29.48;;;;;;;-2.37;96.94;100548.38;7395903;19;20018;-66
2021/12/07 04:21:19;;;;;;;56.30;30.08;;;;;;;-2.37;96.76;100547.53;7397456;19;20543;-67
2021/12/07 04:23:48;;;;;;;60.42;30.08;;;;;;;-2.40;96.69;100552.56;7395599;19;20035;-66
2021/12/07 04:26:17;;;;;;;56.05;28.85;;;;;;;-2.40;96.94;100552.56;7397759;19;20028;-66
2021/12/07 04:28:46;;;;;;;57.45;29.77;;;;;;;-2.42;97.08;100549.97;7397391;19;20027;-66
2021/12/07 04:31:15;;;;;;;56.75;29.63;;;;;;;-2.44;96.74;100543.91;7395401;19;20028;-66
2021/12/07 04:33:50;;;;;;;53.95;28.50;;;;;;;-2.45;96.87;100531.91;7394974;19;20010;-66
2021/12/07 04:36:27;;;;;;;59.30;28.55;;;;;;;-2.47;96.98;100546.38;7396601;19;20366;-68
2021/12/07 04:38:55;;;;;;;60.90;29.73;;;;;;;-2.48;96.80;100539.50;7394781;19;20010;-66
2021/12/07 04:41:24;;;;;;;54.85;27.73;;;;;;;-2.49;96.72;100538.66;7396351;19;20025;-66
2021/12/07 04:43:52;;;;;;;52.00;27.75;;;;;;;-2.51;96.66;100534.28;7393896;19;20086;-67
2021/12/07 04:46:27;;;;;;;59.63;30.92;;;;;;;-2.51;96.58;100540.28;7397268;19;20014;-66
2021/12/07 04:49:28;;;;;;;52.80;27.75;;;;;;;-2.52;96.90;100541.13;7396928;19;20011;-67
2021/12/07 04:59:56;;;;;;;58.15;29.20;;;;;;;-2.56;96.98;100551.28;7395770;19;20486;-67
2021/12/07 05:02:24;;;;;;;59.80;31.10;;;;;;;-2.57;96.73;100544.41;7394690;19;20041;-67
2021/12/07 05:04:53;;;;;;;56.58;28.73;;;;;;;-2.58;96.93;100540.06;7394381;19;20041;-67
2021/12/07 05:07:30;;;;;;;58.05;29.13;;;;;;;-2.59;96.69;100543.47;7394333;19;20015;-67
2021/12/07 05:10:21;;;;;;;55.78;29.77;;;;;;;-2.60;96.87;100536.59;7394459;19;20026;-67
2021/12/07 05:15:53;;;;;;;51.55;27.38;;;;;;;-2.62;96.77;100533.97;7393009;19;20491;-67
2021/12/07 05:18:37;;;;;;;53.83;27.00;;;;;;;-2.64;96.88;100535.66;7394525;19;20014;-67
2021/12/07 05:24:04;;;;;;;53.33;27.95;;;;;;;-2.66;96.76;100534.72;7395265;19;20511;-67
2021/12/07 05:37:38;;;;;;;60.88;30.00;;;;;;;-2.69;96.70;100537.19;7393458;19;20015;-66
2021/12/07 05:37:47;;;;;;;56.55;27.17;;;;;;;-2.71;96.90;100539.72;7393905;19;20464;-66
2021/12/07 05:40:20;;;;;;;58.33;29.80;;;;;;;-2.71;97.05;100539.72;7395132;19;20011;-67
2021/12/07 05:42:49;;;;;;;62.22;30.40;;;;;;;-2.72;96.88;100545.69;7394083;19;20014;-66
2021/12/07 05:45:20;;;;;;;57.55;30.17;;;;;;;-2.72;96.99;100545.69;7394353;19;20034;-66
2021/12/07 05:47:50;;;;;;;56.95;28.80;;;;;;;-2.72;96.93;100549.94;7396111;19;20019;-65
2021/12/07 05:50:22;;;;;;;58.72;28.92;;;;;;;-2.71;96.99;100564.53;7394700;19;20045;-66
2021/12/07 05:52:50;;;;;;;64.65;30.42;;;;;;;-2.71;96.80;100559.41;7394789;19;20394;-66
2021/12/07 05:55:22;;;;;;;60.72;31.63;;;;;;;-2.70;97.04;100566.28;7394500;19;20018;-65
2021/12/07 05:57:50;;;;;;;61.65;32.55;;;;;;;-2.69;96.87;100570.56;7394030;19;20014;-65
2021/12/07 06:00:24;;;;;;;62.65;33.58;;;;;;;-2.68;97.05;100559.47;7393887;19;20019;-66
2021/12/07 06:02:53;;;;;;;56.63;30.17;;;;;;;-2.66;97.16;100562.97;7393319;19;20010;-67
2021/12/07 06:05:22;;;;;;;60.47;31.05;;;;;;;-2.67;97.08;100568.94;7392955;19;20032;-65
2021/12/07 06:07:50;;;;;;;53.47;28.17;;;;;;;-2.68;97.12;100559.47;7390110;19;20082;-66
2021/12/07 06:10:22;;;;;;;55.35;29.58;;;;;;;-2.68;97.08;100564.63;7392552;19;20522;-65
2021/12/07 06:12:50;;;;;;;58.35;29.23;;;;;;;-2.68;96.96;100556.91;7394116;19;20360;-66
2021/12/07 06:15:21;;;;;;;61.88;30.75;;;;;;;-2.69;96.99;100563.75;7393881;19;20015;-66
2021/12/07 06:17:51;;;;;;;57.42;29.42;;;;;;;-2.71;96.81;100565.41;7393489;19;20011;-66
2021/12/07 06:20:20;;;;;;;57.13;28.30;;;;;;;-2.72;97.06;100568.78;7391391;19;20037;-66
2021/12/07 06:22:48;;;;;;;53.58;29.17;;;;;;;-2.69;97.24;100570.56;7388776;19;20444;-65
2021/12/07 06:25:17;;;;;;;64.00;31.58;;;;;;;-2.69;96.88;100568.00;7388914;19;20571;-65
2021/12/07 06:27:48;;;;;;;58.25;31.05;;;;;;;-2.70;96.92;100566.28;7393538;19;20015;-66
2021/12/07 06:30:17;;;;;;;57.78;29.40;;;;;;;-2.70;96.94;100567.16;7391720;19;20018;-68
2021/12/07 06:32:45;;;;;;;61.70;29.77;;;;;;;-2.72;97.13;100566.22;7392683;19;20031;-66
2021/12/07 06:35:14;;;;;;;66.45;33.78;;;;;;;-2.71;96.98;100567.97;7390360;19;20499;-67
2021/12/07 06:37:42;;;;;;;58.95;30.40;;;;;;;-2.70;97.09;100571.44;7392824;19;20015;-66
2021/12/07 06:40:12;;;;;;;60.65;29.95;;;;;;;-2.69;96.82;100565.44;7392964;19;20044;-67
2021/12/07 06:42:41;;;;;;;59.95;30.00;;;;;;;-2.67;97.10;100561.22;7392555;19;20015;-66
2021/12/07 06:45:13;;;;;;;66.28;31.33;;;;;;;-2.63;97.17;100574.22;7394335;19;20026;-66
2021/12/07 06:47:42;;;;;;;57.17;29.63;;;;;;;-2.59;97.28;100571.72;7401534;19;20043;-66
2021/12/07 06:50:13;;;;;;;60.33;32.70;;;;;;;-2.56;97.02;100575.25;7400834;19;20032;-67
2021/12/07 06:52:41;;;;;;;58.97;30.45;;;;;;;-2.52;97.26;100577.06;7397304;19;20023;-66
2021/12/07 06:55:11;;;;;;;59.60;30.73;;;;;;;-2.48;97.08;100567.75;7398412;19;20022;-67
2021/12/07 06:57:39;;;;;;;61.72;31.17;;;;;;;-2.46;97.22;100576.41;7397784;19;20018;-66
2021/12/07 07:00:13;;;;;;;59.50;31.13;;;;;;;-2.43;97.17;100581.63;7397201;19;20479;-66
2021/12/07 07:02:41;;;;;;;59.95;29.92;;;;;;;-2.40;97.08;100580.81;7399944;19;20018;-67
2021/12/07 07:05:11;;;;;;;50.95;29.33;;;;;;;-2.40;97.05;100589.44;7397284;19;20109;-66
2021/12/07 07:07:39;;;;;;;56.42;29.52;;;;;;;-2.38;96.88;100585.19;7400317;19;20352;-66
2021/12/07 07:10:10;;;;;;;59.13;29.65;;;;;;;-2.36;96.98;100590.38;7400309;19;20024;-66
2021/12/07 07:12:39;;;;;;;55.53;29.45;;;;;;;-2.38;96.93;100586.88;7399975;19;20031;-66
2021/12/07 07:15:08;;;;;;;60.80;32.30;;;;;;;-2.34;96.92;100599.00;7397477;19;20018;-66
2021/12/07 07:17:39;;;;;;;59.67;30.00;;;;;;;-2.32;96.85;100603.34;7399464;19;20028;-66
2021/12/07 07:20:11;;;;;;;55.05;28.92;;;;;;;-2.30;96.85;100603.38;7396982;19;20011;-66
2021/12/07 07:22:39;;;;;;;60.35;31.45;;;;;;;-2.28;96.80;100604.31;7399917;19;20015;-67
2021/12/07 07:25:09;;;;;;;64.13;31.95;;;;;;;-2.25;96.75;100612.13;7396588;19;20018;-66
2021/12/07 07:27:37;;;;;;;58.50;28.98;;;;;;;-2.22;96.97;100613.91;7398786;19;20019;-66
2021/12/07 07:30:06;;;;;;;60.58;31.13;;;;;;;-2.20;96.68;100614.81;7399668;19;20365;-66
2021/12/07 07:32:34;;;;;;;59.30;31.83;;;;;;;-2.16;97.21;100616.63;7398905;19;20040;-66
2021/12/07 07:35:06;;;;;;;61.97;31.20;;;;;;;-2.13;96.83;100625.28;7395540;19;20475;-67
2021/12/07 07:37:35;;;;;;;59.70;30.38;;;;;;;-2.11;96.83;100619.34;7399161;19;20036;-67
2021/12/07 07:40:03;;;;;;;57.50;30.88;;;;;;;-2.08;96.71;100619.44;7396528;19;20032;-68
2021/12/07 07:42:31;;;;;;;58.97;30.60;;;;;;;-2.05;96.82;100614.38;7398752;19;20023;-67
2021/12/07 07:45:00;;;;;;;61.88;30.27;;;;;;;-2.08;96.64;100614.28;7396649;19;20019;-67
2021/12/07 07:47:28;;;;;;;60.33;31.13;;;;;;;-2.01;96.49;100623.91;7398677;19;20023;-68
2021/12/07 07:49:56;;;;;;;68.47;36.03;;;;;;;-2.04;96.58;100613.53;7398624;19;20015;-69
2021/12/07 07:52:27;;;;;;;82.38;40.83;;;;;;;-1.98;96.67;100613.72;7396277;19;20022;-68
2021/12/07 07:54:55;;;;;;;65.07;34.05;;;;;;;-1.98;96.65;100618.84;7396246;19;20019;-68
2021/12/07 07:57:23;;;;;;;62.38;32.67;;;;;;;-1.94;96.81;100622.38;7396330;19;20027;-68
2021/12/07 07:59:52;;;;;;;61.42;31.27;;;;;;;-1.94;96.83;100625.81;7396430;19;20031;-68
2021/12/07 08:02:20;;;;;;;59.42;29.75;;;;;;;-1.92;96.77;100628.41;7398109;19;20019;-68
2021/12/07 08:04:48;;;;;;;63.13;30.30;;;;;;;-1.92;96.95;100631.88;7396280;19;20040;-68
2021/12/07 08:07:17;;;;;;;58.88;31.33;;;;;;;-1.91;97.18;100625.88;7395930;19;20018;-68
2021/12/07 08:09:48;;;;;;;65.10;34.08;;;;;;;-1.88;96.72;100627.69;7396111;19;20018;-68
2021/12/07 08:12:16;;;;;;;62.38;33.00;;;;;;;-1.86;96.54;100621.78;7398574;19;20014;-68
2021/12/07 08:14:44;;;;;;;65.65;34.67;;;;;;;-1.82;96.85;100620.13;7395774;19;20018;-68
2021/12/07 08:17:12;;;;;;;72.93;34.75;;;;;;;-1.77;96.90;100620.25;7394956;19;20085;-68
2021/12/07 08:19:40;;;;;;;67.43;34.20;;;;;;;-1.72;96.71;100622.13;7396197;19;20014;-68
2021/12/07 08:22:09;;;;;;;68.45;34.97;;;;;;;-1.67;96.74;100627.38;7397266;19;20041;-68
2021/12/07 08:24:37;;;;;;;72.63;35.85;;;;;;;-1.65;96.63;100616.28;7395532;19;20018;-68
2021/12/07 08:27:08;;;;;;;66.40;32.85;;;;;;;-1.62;96.76;100620.66;7397630;19;20018;-68
2021/12/07 08:29:36;;;;;;;61.83;31.83;;;;;;;-1.59;96.59;100623.31;7397767;19;20011;-68
2021/12/07 08:32:05;;;;;;;61.78;31.48;;;;;;;-1.56;96.37;100636.25;7397774;19;20011;-68
2021/12/07 08:34:33;;;;;;;62.80;33.90;;;;;;;-1.55;96.43;100627.69;7394642;19;20518;-68
2021/12/07 08:37:02;;;;;;;64.03;32.35;;;;;;;-1.50;96.59;100636.41;7397138;19;20018;-68
2021/12/07 08:39:30;;;;;;;62.65;34.63;;;;;;;-1.48;96.46;100629.59;7395827;19;20022;-69
2021/12/07 08:41:58;;;;;;;61.47;32.47;;;;;;;-1.41;96.23;100634.91;7396698;19;20015;-68
2021/12/07 08:44:29;;;;;;;63.85;33.63;;;;;;;-1.38;96.48;100630.72;7395062;19;20451;-68
2021/12/07 08:46:57;;;;;;;59.50;32.85;;;;;;;-1.34;96.39;100627.38;7396093;19;20385;-68
2021/12/07 08:49:26;;;;;;;65.32;31.55;;;;;;;-1.30;96.58;100638.63;7396145;19;20374;-68
2021/12/07 08:51:54;;;;;;;61.35;31.67;;;;;;;-1.27;96.39;100636.13;7395773;19;20015;-68
2021/12/07 08:54:33;;;;;;;61.55;31.77;;;;;;;-1.25;95.99;100626.75;7394495;19;20374;-68
2021/12/07 08:59:47;;;;;;;57.53;30.30;;;;;;;-1.20;95.77;100637.13;7395393;19;20491;-67
2021/12/07 09:02:18;;;;;;;60.92;30.95;;;;;;;-1.18;96.07;100646.63;7396100;19;20018;-68
2021/12/07 09:04:47;;;;;;;59.47;31.95;;;;;;;-1.15;96.02;100649.31;7394131;19;20018;-68
2021/12/07 09:07:16;;;;;;;66.18;33.90;;;;;;;-1.10;95.86;100651.09;7394495;19;20034;-66
2021/12/07 09:09:45;;;;;;;70.57;33.42;;;;;;;-1.12;96.23;100639.91;7394301;19;20035;-66
2021/12/07 09:12:16;;;;;;;61.75;32.22;;;;;;;-1.02;96.02;100655.63;7394032;19;20018;-68
2021/12/07 09:14:48;;;;;;;56.22;30.63;;;;;;;-0.97;96.01;100658.31;7394496;19;20035;-66
2021/12/07 09:17:17;;;;;;;61.88;32.00;;;;;;;-0.92;96.20;100651.56;7395973;19;20078;-67
2021/12/07 09:19:46;;;;;;;62.55;31.48;;;;;;;-0.88;96.00;100658.53;7394075;19;20483;-68
2021/12/07 09:22:14;;;;;;;61.17;32.88;;;;;;;-0.89;96.13;100651.63;7396487;19;20035;-68
2021/12/07 09:24:43;;;;;;;61.58;31.75;;;;;;;-0.82;96.13;100663.81;7394084;19;20031;-68
2021/12/07 09:27:11;;;;;;;60.72;32.70;;;;;;;-0.77;95.74;100671.66;7395358;19;20029;-68
2021/12/07 09:30:04;;;;;;;69.32;35.75;;;;;;;-0.73;95.83;100672.59;7396190;19;20364;-68
2021/12/07 09:32:32;;;;;;;60.65;31.90;;;;;;;-0.72;95.61;100670.06;7395325;19;20472;-69
2021/12/07 09:35:07;;;;;;;59.25;32.25;;;;;;;-0.70;95.27;100672.66;7393391;19;20014;-68
2021/12/07 09:37:43;;;;;;;61.10;31.95;;;;;;;-0.70;95.57;100657.22;7394047;19;20018;-68
2021/12/07 09:40:14;;;;;;;57.97;32.08;;;;;;;-0.67;95.10;100663.31;7393179;19;20018;-68
2021/12/07 09:42:43;;;;;;;59.13;30.05;;;;;;;-0.64;95.35;100665.09;7393315;19;20027;-68
2021/12/07 09:45:17;;;;;;;55.70;30.55;;;;;;;-0.62;95.81;100666.00;7392906;19;20031;-68
2021/12/07 09:47:46;;;;;;;55.33;31.90;;;;;;;-0.57;94.76;100668.66;7393282;19;20018;-68
2021/12/07 09:50:17;;;;;;;57.40;31.85;;;;;;;-0.56;94.38;100660.94;7394814;19;20034;-68
2021/12/07 09:52:46;;;;;;;57.10;31.63;;;;;;;-0.55;94.20;100660.13;7394916;19;20014;-68
2021/12/07 09:55:15;;;;;;;56.17;31.02;;;;;;;-0.56;94.41;100658.38;7392657;19;20482;-68
2021/12/07 09:57:44;;;;;;;54.22;30.27;;;;;;;-0.52;94.13;100659.31;7394756;19;20031;-68
2021/12/07 10:00:21;;;;;;;57.47;30.55;;;;;;;-0.50;94.42;100661.09;7392322;19;20014;-68
2021/12/07 10:02:49;;;;;;;50.83;29.15;;;;;;;-0.50;93.85;100662.81;7394135;19;20367;-68
2021/12/07 10:05:21;;;;;;;53.05;29.52;;;;;;;-0.50;93.33;100666.25;7394572;19;20019;-69
2021/12/07 10:07:50;;;;;;;57.75;30.65;;;;;;;-0.50;93.57;100653.34;7392952;19;20018;-68
2021/12/07 10:10:24;;;;;;;52.90;28.15;;;;;;;-0.50;92.67;100650.78;7394285;19;20019;-69
2021/12/07 10:12:53;;;;;;;54.35;30.52;;;;;;;-0.49;92.91;100651.69;7392744;19;20014;-68
2021/12/07 10:15:24;;;;;;;55.35;29.77;;;;;;;-0.51;92.84;100649.03;7393872;19;20044;-68
2021/12/07 10:18:02;;;;;;;55.70;31.02;;;;;;;-0.51;92.84;100659.34;7394457;19;20015;-68
2021/12/07 10:20:38;;;;;;;56.80;30.00;;;;;;;-0.49;92.53;100664.56;7399906;19;20010;-68
2021/12/07 10:23:24;;;;;;;55.25;30.83;;;;;;;-0.49;92.76;100667.13;7401506;19;20044;-69
2021/12/07 10:25:55;;;;;;;53.55;31.15;;;;;;;-0.47;92.89;100662.88;7399389;19;20030;-69
2021/12/07 10:28:32;;;;;;;56.40;30.42;;;;;;;-0.47;92.79;100659.44;7400866;19;20429;-69
2021/12/07 10:31:06;;;;;;;55.88;30.90;;;;;;;-0.47;93.08;100669.75;7401513;19;20366;-69
2021/12/07 10:33:36;;;;;;;51.33;29.70;;;;;;;-0.47;92.94;100668.03;7400183;19;20131;-68
2021/12/07 10:36:19;;;;;;;57.63;30.80;;;;;;;-0.47;93.07;100660.28;7397737;19;20017;-69
2021/12/07 10:38:51;;;;;;;58.72;30.40;;;;;;;-0.46;92.68;100656.03;7400601;19;20515;-67
2021/12/07 10:41:22;;;;;;;56.20;30.08;;;;;;;-0.46;92.81;100646.56;7397511;19;20500;-69
2021/12/07 10:43:55;;;;;;;54.08;30.20;;;;;;;-0.46;92.51;100650.88;7400041;19;20036;-67
2021/12/07 10:46:41;;;;;;;56.72;28.80;;;;;;;-0.45;92.67;100652.63;7400629;19;20037;-68
2021/12/07 10:49:17;;;;;;;56.42;31.42;;;;;;;-0.42;92.44;100653.53;7401460;19;20027;-68
2021/12/07 10:52:00;;;;;;;57.10;30.25;;;;;;;-0.42;92.74;100650.09;7400399;19;20409;-69
2021/12/07 10:54:29;;;;;;;56.47;31.73;;;;;;;-0.38;92.97;100644.16;7398643;19;20015;-68
2021/12/07 10:56:58;;;;;;;55.92;30.80;;;;;;;-0.37;92.64;100641.63;7400139;19;20011;-67
2021/12/07 10:59:26;;;;;;;61.63;33.30;;;;;;;-0.34;91.43;100640.81;7399173;19;20515;-68
2021/12/07 11:01:57;;;;;;;60.50;32.22;;;;;;;-0.32;92.10;100638.28;7400045;19;20382;-68
2021/12/07 11:04:29;;;;;;;54.95;31.25;;;;;;;-0.31;91.72;100634.88;7398476;19;20015;-68
2021/12/07 11:07:13;;;;;;;60.30;31.35;;;;;;;-0.28;92.03;100630.63;7398100;19;20040;-67
2021/12/07 11:09:47;;;;;;;52.15;29.42;;;;;;;-0.25;91.43;100637.53;7398014;19;20022;-67
2021/12/07 11:12:18;;;;;;;60.90;30.85;;;;;;;-0.21;90.57;100631.63;7397158;19;20056;-67
2021/12/07 11:14:51;;;;;;;59.78;33.20;;;;;;;-0.24;91.37;100621.22;7397603;19;20348;-68
2021/12/07 11:17:26;;;;;;;57.22;31.13;;;;;;;-0.16;92.08;100635.16;7397518;19;20040;-67
2021/12/07 11:19:56;;;;;;;54.50;31.17;;;;;;;-0.10;92.55;100624.97;7397508;19;20027;-67
2021/12/07 11:22:26;;;;;;;57.92;32.38;;;;;;;-0.05;92.18;100627.63;7396708;19;20382;-67
2021/12/07 11:24:56;;;;;;;63.00;33.63;;;;;;;0.02;91.88;100628.66;7397131;19;20018;-67
2021/12/07 11:30:10;;;;;;;54.22;31.17;;;;;;;0.14;91.33;100627.16;7397382;19;20010;-67
2021/12/07 11:32:44;;;;;;;58.03;33.00;;;;;;;0.21;91.80;100630.72;7397314;19;20019;-68
2021/12/07 11:35:19;;;;;;;61.55;31.85;;;;;;;0.27;91.06;100619.66;7394977;19;20014;-67
2021/12/07 11:37:48;;;;;;;52.25;28.98;;;;;;;0.29;91.02;100625.69;7396387;19;20014;-68
2021/12/07 11:40:21;;;;;;;50.72;28.40;;;;;;;0.31;90.38;100631.78;7398063;19;20395;-68
2021/12/07 11:42:49;;;;;;;52.40;29.38;;;;;;;0.34;90.91;100638.69;7399206;19;20019;-67
2021/12/07 11:45:19;;;;;;;53.92;30.02;;;;;;;0.35;91.24;100649.03;7398628;19;20028;-68
2021/12/07 11:47:52;;;;;;;53.97;28.38;;;;;;;0.35;90.29;100649.03;7399372;19;20073;-68
2021/12/07 11:50:25;;;;;;;52.58;29.20;;;;;;;0.35;90.31;100643.03;7399148;19;20015;-68
2021/12/07 11:52:55;;;;;;;49.42;27.83;;;;;;;0.31;89.83;100642.94;7398308;19;20483;-68
2021/12/07 11:55:25;;;;;;;49.17;28.08;;;;;;;0.30;90.30;100648.09;7399091;19;20023;-68
2021/12/07 11:57:54;;;;;;;49.53;28.02;;;;;;;0.27;89.75;100635.16;7398121;19;20376;-68
2021/12/07 12:00:25;;;;;;;50.25;28.30;;;;;;;0.24;90.30;100635.06;7397335;19;20028;-68
2021/12/07 12:02:57;;;;;;;53.55;30.05;;;;;;;0.21;90.77;100628.13;7397745;19;20019;-67
2021/12/07 12:05:25;;;;;;;51.67;27.95;;;;;;;0.21;90.21;100629.88;7398331;19;20035;-67
2021/12/07 12:07:53;;;;;;;56.20;30.85;;;;;;;0.18;89.40;100620.34;7397188;19;20031;-67
2021/12/07 12:10:21;;;;;;;60.42;31.08;;;;;;;0.16;89.28;100619.44;7395044;19;20019;-67
2021/12/07 12:13:17;;;;;;;48.20;27.83;;;;;;;0.12;88.38;100610.78;7397809;19;20022;-67
2021/12/07 12:15:57;;;;;;;55.10;28.50;;;;;;;0.08;89.32;100614.16;7394770;19;20040;-66
2021/12/07 12:18:43;;;;;;;46.63;27.70;;;;;;;0.06;89.21;100620.97;7395749;19;20373;-67
2021/12/07 12:21:21;;;;;;;51.55;28.30;;;;;;;0.06;90.52;100623.56;7393803;19;20014;-68
2021/12/07 12:24:04;;;;;;;49.35;28.80;;;;;;;0.05;89.32;100619.25;7394992;19;20360;-67
2021/12/07 12:26:34;;;;;;;58.17;30.92;;;;;;;0.03;89.40;100614.91;7393396;19;20011;-67
2021/12/07 12:29:03;;;;;;;53.63;29.10;;;;;;;0.03;89.54;100622.66;7395961;19;20018;-67
2021/12/07 12:31:46;;;;;;;59.42;31.17;;;;;;;0.02;89.10;100626.91;7395390;19;20044;-68
2021/12/07 12:34:25;;;;;;;56.17;29.10;;;;;;;0.04;89.49;100626.94;7392770;19;20091;-68
2021/12/07 12:36:59;;;;;;;50.78;28.63;;;;;;;0.03;89.90;100635.56;7396760;19;20015;-68
2021/12/07 12:39:44;;;;;;;57.65;30.50;;;;;;;0.01;89.57;100632.91;7396815;19;20018;-67